Nearby METAR Reports

 

KISP - Islip, New York, USA
Distance from station: SW 4mi, 6km
Updated: Sun, 12/9/2018 9:56 pm EST
Overcast
Overcast
 Wind from calm
Wind: Calm
Temperature: 30°F , -1°C
Dew Point: 23°F , -5°C
Humidity: 75%
Barometer: 30.19 inHg , 1022.4 hPa
Clouds: Overcast
Visibility: 10 miles , 16 km
Cloud details: Overcast 22000 ft
2018/12/10 02:56 KISP 100256Z 00000KT 10SM OVC220 M01/M05 A3019 RMK AO2 SLP223 T10111050 55013
KHWV - Shirley, New York, USA
Distance from station: E 10mi, 16km
Updated: Sun, 12/9/2018 9:56 pm EST
Clear
Clear
 Wind from calm
Wind: Calm
Temperature: 28°F , -2°C
Dew Point: 21°F , -6°C
Humidity: 74%
Barometer: 30.20 inHg , 1022.7 hPa
Clouds: Clear
Visibility: 10 miles , 16 km
2018/12/10 02:56 KHWV 100256Z AUTO 00000KT 10SM CLR M02/M06 A3020 RMK AO2 SLP227 T10171061 55013
 
KFRG - Farmingdale, New York, USA
Distance from station: WSW 20mi, 33km
Updated: Sun, 12/9/2018 9:53 pm EST
Clear
Clear
 Wind from calm
Wind: Calm
Temperature: 30°F , -1°C
Dew Point: 21°F , -6°C
Humidity: 69%
Barometer: 30.19 inHg , 1022.4 hPa
Clouds: Clear
Visibility: 10 miles , 16 km
2018/12/10 02:53 KFRG 100253Z 00000KT 10SM CLR M01/M06 A3019 RMK AO2 SLP224 T10061056 56015
KBDR - Bridgeport, Connecticut, USA
Distance from station: N 23mi, 37km
Updated: Sun, 12/9/2018 9:52 pm EST
Clear
Clear
 Wind from W
Wind: W 5 mph , 7 km/h
Temperature: 32°F , 0°C
Wind Chill: 27°F , -3°C
Dew Point: 18°F , -8°C
Humidity: 55%
Barometer: 30.19 inHg , 1022.4 hPa
Clouds: Clear
Visibility: 10 miles , 16 km
2018/12/10 02:52 KBDR 100252Z 27004KT 10SM CLR 00/M08 A3019 RMK AO2 SLP223 T00001078 56013
 
KFOK - Westhampton Beac, New York, USA
Distance from station: E 23mi, 37km
Updated: Sun, 12/9/2018 9:53 pm EST
Clear
Clear
 Wind from calm
Wind: Calm
Temperature: 25°F , -4°C
Dew Point: 19°F , -7°C
Humidity: 80%
Barometer: 30.21 inHg , 1023 hPa
Clouds: Clear
Visibility: 10 miles , 16 km
2018/12/10 02:53 KFOK 100253Z 00000KT 10SM CLR M04/M07 A3021 RMK AO2 SLP231 T10441072 55012 $
KHVN - New Haven/Tweed, Connecticut, USA
Distance from station: NNE 31mi, 50km
Updated: Sun, 12/9/2018 9:53 pm EST
Mostly cloudy
Mostly cloudy
 Wind from W
Wind: W 7 mph , 11 km/h
Temperature: 32°F , 0°C
Wind Chill: 25°F , -4°C
Dew Point: 19°F , -7°C
Humidity: 60%
Barometer: 30.19 inHg , 1022.4 hPa
Clouds: Mostly cloudy
Visibility: 10 miles , 16 km
Cloud details: Mostly cloudy 20000 ft
2018/12/10 02:53 KHVN 100253Z 26006KT 10SM BKN200 00/M07 A3019
 
KHPN - White Plains, New York, USA
Distance from station: WNW 37mi, 60km
Updated: Sun, 12/9/2018 9:56 pm EST
Clear
Clear
 Wind from W
Wind: W 3 mph , 6 km/h
Temperature: 28°F , -2°C
Dew Point: 16°F , -9°C
Humidity: 59%
Barometer: 30.16 inHg , 1021.3 hPa
Clouds: Clear
Visibility: 10 miles , 16 km
2018/12/10 02:56 KHPN 100256Z 26003KT 10SM CLR M02/M09 A3016 RMK AO2 SLP220 T10171094 56014 $
KJFK - Nyc/Jfk Arpt, New York, USA
Distance from station: WSW 40mi, 64km
Updated: Sun, 12/9/2018 9:51 pm EST
Overcast
Overcast
 Wind from NW
Wind: NW 5 mph , 7 km/h
Temperature: 34°F , 1°C
Wind Chill: 29°F , -2°C
Dew Point: 18°F , -8°C
Humidity: 51%
Barometer: 30.21 inHg , 1023 hPa
Clouds: Overcast
Visibility: 10 miles , 16 km
Cloud details: Overcast 22000 ft
2018/12/10 02:51 KJFK 100251Z 31004KT 10SM OVC220 01/M08 A3021 RMK AO2 SLP230 T00061078 55015
 
KDXR - Danbury, Connecticut, USA
Distance from station: NNW 42mi, 68km
Updated: Sun, 12/9/2018 9:53 pm EST
Clear
Clear
 Wind from W
Wind: W 3 mph , 6 km/h
Temperature: 27°F , -3°C
Dew Point: 16°F , -9°C
Humidity: 64%
Barometer: 30.17 inHg , 1021.7 hPa
Clouds: Clear
Visibility: 10 miles , 16 km
2018/12/10 02:53 KDXR 100253Z 27003KT 10SM CLR M03/M09 A3017 RMK AO2 SLP222 T10281094 58012
KHTO - East Hampton, New York, USA
Distance from station: E 43mi, 69km
Updated: Sun, 12/9/2018 10:15 pm EST
Clear
Clear
 Wind from NW
Wind: NW 3 mph , 6 km/h
Temperature: 30°F , -1°C
Dew Point: 23°F , -5°C
Humidity: 75%
Barometer: 30.18 inHg , 1022 hPa
Clouds: Clear
Visibility: 10 miles , 16 km
2018/12/10 03:15 KHTO 100315Z AUTO 31003KT 10SM CLR M01/M05 A3018 RMK AO2 T10131051
 
KOXC - Oxford/Waterbury, Connecticut, USA
Distance from station: N 43mi, 70km
Updated: Sun, 12/9/2018 9:51 pm EST
Clear
Clear
 Wind from WSW
Wind: WSW 3 mph , 6 km/h
Temperature: 27°F , -3°C
Dew Point: 18°F , -8°C
Humidity: 69%
Barometer: 30.15 inHg , 1021 hPa
Clouds: Clear
Visibility: 10 miles , 16 km
2018/12/10 02:51 KOXC 100251Z AUTO 24003KT 10SM CLR M03/M08 A3015 RMK AO2 SLP231 T10331078 58014 FZRANO
KLGA - Nyc/La Guardia, New York, USA
Distance from station: W 44mi, 70km
Updated: Sun, 12/9/2018 9:51 pm EST
Overcast
Overcast
 Wind from WNW
Wind: WNW 8 mph , 13 km/h
Temperature: 34°F , 1°C
Wind Chill: 27°F , -3°C
Dew Point: 16°F , -9°C
Humidity: 48%
Barometer: 30.20 inHg , 1022.7 hPa
Clouds: Overcast
Visibility: 10 miles , 16 km
Cloud details: Overcast 22000 ft
2018/12/10 02:51 KLGA 100251Z 29007KT 10SM OVC220 01/M09 A3020 RMK AO2 SLP226 T00111094 55012
 
KSNC - Chester, Connecticut, USA
Distance from station: NE 47mi, 76km
Updated: Sun, 12/9/2018 10:15 pm EST
Clear
Clear
 Wind from varies
Wind: varies 3 mph , 6 km/h
Temperature: 30°F , -1°C
Dew Point: 18°F , -8°C
Humidity: 59%
Barometer: 30.16 inHg , 1021.3 hPa
Clouds: Clear
Visibility: 10 miles , 16 km
2018/12/10 03:15 KSNC 100315Z AUTO VRB03KT 10SM CLR M01/M08 A3016 RMK AO2
KMMK - Meriden, Connecticut, USA
Distance from station: NNE 48mi, 77km
Updated: Sun, 12/9/2018 9:53 pm EST
Clear
Clear
 Wind from calm
Wind: Calm
Temperature: 27°F , -3°C
Dew Point: 18°F , -8°C
Humidity: 69%
Barometer: 30.18 inHg , 1022 hPa
Clouds: Clear
Visibility: 10 miles , 16 km
2018/12/10 02:53 KMMK 100253Z AUTO 00000KT 10SM CLR M03/M08 A3018 RMK AO2 SLP224 T10331078 58011 $
 
KNYC - Nyc/Central Park, New York, USA
Distance from station: W 48mi, 77km
Updated: Sun, 12/9/2018 9:51 pm EST
Clear
Clear
 
Temperature: 32°F , 0°C
Dew Point: 16°F , -9°C
Humidity: 51%
Barometer: 30.21 inHg , 1023 hPa
Clouds: Clear
Visibility: 10 miles , 16 km
2018/12/10 02:51 KNYC 100251Z AUTO 10SM CLR 00/M09 A3021 RMK AO2 SLP224 T00001094 55013 $